Time;durP1;ratioP1;P1;durP2;ratioP2;P2;SDS_P1;SDS_P2;PMS_P1;PMS_P2;Temp;Humidity;BMP_temperature;BMP_pressure;BME280_temperature;BME280_humidity;BME280_pressure;Samples;Min_cycle;Max_cycle;Signal;HPM_P1;HPM_P2
2022/07/15 00:02:12;;;;;;;8.00;1.92;;;17.10;60.00;;;;;;9183768;19;20488;-67
2022/07/15 00:05:18;;;;;;;8.52;1.88;;;17.00;60.10;;;;;;9177215;19;20014;-66
2022/07/15 00:08:23;;;;;;;8.85;2.47;;;16.90;60.10;;;;;;9181517;19;20128;-67
2022/07/15 00:11:30;;;;;;;13.00;2.08;;;16.90;60.20;;;;;;9182771;19;20356;-66
2022/07/15 00:14:35;;;;;;;6.72;2.40;;;16.90;60.40;;;;;;9181310;19;20018;-65
2022/07/15 00:17:41;;;;;;;8.88;2.38;;;16.80;60.30;;;;;;9181513;19;20018;-66
2022/07/15 00:20:46;;;;;;;15.40;2.42;;;16.80;60.40;;;;;;9181370;19;20021;-65
2022/07/15 00:23:51;;;;;;;9.73;2.30;;;16.70;60.50;;;;;;9179732;19;20045;-66
2022/07/15 00:26:59;;;;;;;9.23;2.05;;;16.70;60.60;;;;;;9181110;19;20014;-65
2022/07/15 00:30:04;;;;;;;9.23;2.30;;;16.70;60.70;;;;;;9180848;19;20040;-66
2022/07/15 00:33:10;;;;;;;13.55;2.28;;;16.60;60.70;;;;;;9180291;19;20022;-66
2022/07/15 00:36:15;;;;;;;5.50;2.05;;;16.60;60.80;;;;;;9182399;19;20027;-66
2022/07/15 00:39:20;;;;;;;11.40;2.63;;;16.60;60.80;;;;;;9182881;19;20505;-68
2022/07/15 00:45:47;;;;;;;11.10;2.25;;;16.50;61.10;;;;;;9177948;19;20015;-68
2022/07/15 00:48:52;;;;;;;10.20;2.38;;;16.50;61.00;;;;;;9180654;19;20006;-67
2022/07/15 00:51:59;;;;;;;9.63;2.20;;;16.40;61.00;;;;;;9179664;19;20025;-67
2022/07/15 00:55:08;;;;;;;9.73;2.40;;;16.40;61.10;;;;;;9180881;19;20644;-66
2022/07/15 00:58:19;;;;;;;7.68;2.20;;;16.30;61.20;;;;;;9179501;19;20014;-66
2022/07/15 01:01:24;;;;;;;8.85;2.20;;;16.30;61.30;;;;;;9174875;19;20356;-68
2022/07/15 01:04:33;;;;;;;7.70;1.88;;;16.30;61.30;;;;;;9176602;19;20034;-67
2022/07/15 01:07:38;;;;;;;9.13;2.35;;;16.20;61.40;;;;;;9179388;19;20022;-66
2022/07/15 01:10:43;;;;;;;12.52;2.15;;;16.20;61.50;;;;;;9178936;19;20361;-67
2022/07/15 01:13:51;;;;;;;9.90;2.00;;;16.10;61.50;;;;;;9179526;19;20049;-66
2022/07/15 01:16:56;;;;;;;8.75;2.40;;;16.10;61.70;;;;;;9178032;19;20022;-67
2022/07/15 01:20:02;;;;;;;8.60;2.20;;;16.10;61.70;;;;;;9179274;19;20052;-68
2022/07/15 01:23:17;;;;;;;11.82;1.88;;;16.00;61.70;;;;;;9177688;19;20672;-66
2022/07/15 01:26:29;;;;;;;8.27;2.30;;;16.00;61.80;;;;;;9178676;19;20023;-66
2022/07/15 01:29:35;;;;;;;11.38;2.65;;;16.00;61.80;;;;;;9178803;19;20015;-68
2022/07/15 01:32:40;;;;;;;11.60;2.38;;;16.00;62.00;;;;;;9177926;19;20024;-67
2022/07/15 01:35:46;;;;;;;10.18;2.13;;;15.90;62.00;;;;;;9177729;19;20022;-67
2022/07/15 01:38:53;;;;;;;10.98;3.17;;;15.90;62.00;;;;;;9180439;19;20432;-64
2022/07/15 01:42:19;;;;;;;9.30;2.80;;;15.80;62.10;;;;;;9178992;19;20023;-66
2022/07/15 01:45:24;;;;;;;7.13;2.28;;;15.80;62.10;;;;;;9176623;19;20022;-67
2022/07/15 01:52:09;;;;;;;9.10;2.90;;;15.70;62.10;;;;;;9177076;19;20010;-67
2022/07/15 01:55:18;;;;;;;11.88;3.28;;;15.70;62.20;;;;;;9177135;19;20048;-65
2022/07/15 01:58:24;;;;;;;8.38;3.30;;;15.60;62.30;;;;;;9180283;19;20021;-67
2022/07/15 02:01:29;;;;;;;8.75;3.53;;;15.60;62.40;;;;;;9177631;19;20480;-65
2022/07/15 02:04:37;;;;;;;7.78;2.67;;;15.60;63.00;;;;;;9172136;19;20460;-66
2022/07/15 02:07:42;;;;;;;11.77;3.28;;;15.60;62.40;;;;;;9177569;19;20015;-66
2022/07/15 02:10:54;;;;;;;7.22;2.28;;;15.50;62.50;;;;;;9176936;19;20015;-66
2022/07/15 02:14:01;;;;;;;9.40;1.85;;;15.50;62.60;;;;;;9178842;19;20519;-67
2022/07/15 02:17:08;;;;;;;13.85;2.47;;;15.40;62.70;;;;;;9177060;19;20019;-67
2022/07/15 02:20:18;;;;;;;4.35;2.00;;;15.40;62.70;;;;;;9177135;19;20514;-68
2022/07/15 02:23:23;;;;;;;12.73;2.78;;;15.40;62.90;;;;;;9176189;19;20105;-67
2022/07/15 02:26:31;;;;;;;10.25;3.65;;;15.30;62.90;;;;;;9174688;19;20365;-67
2022/07/15 02:29:37;;;;;;;10.40;2.60;;;15.30;63.10;;;;;;9177795;19;20097;-68
2022/07/15 02:32:42;;;;;;;12.80;3.92;;;15.30;63.20;;;;;;9177322;19;20322;-68
2022/07/15 02:35:47;;;;;;;10.63;3.10;;;15.30;63.20;;;;;;9176400;19;20026;-67
2022/07/15 02:38:52;;;;;;;12.15;2.60;;;15.20;63.30;;;;;;9176715;19;20078;-65
2022/07/15 02:42:00;;;;;;;8.48;2.17;;;15.20;63.30;;;;;;9176452;19;20015;-66
2022/07/15 02:45:07;;;;;;;25.95;2.45;;;15.20;63.50;;;;;;9174029;19;20025;-67
2022/07/15 02:48:12;;;;;;;12.20;3.38;;;15.20;63.50;;;;;;9176082;19;20039;-66
2022/07/15 02:51:21;;;;;;;7.53;2.13;;;15.20;63.60;;;;;;9176021;19;20025;-67
2022/07/15 02:54:27;;;;;;;11.82;2.20;;;15.20;63.70;;;;;;9172463;19;20018;-67
2022/07/15 02:57:35;;;;;;;13.18;2.38;;;15.20;63.70;;;;;;9176456;19;20018;-66
2022/07/15 03:00:40;;;;;;;13.38;2.40;;;15.20;63.90;;;;;;9175261;19;20114;-66
2022/07/15 03:03:45;;;;;;;5.95;2.10;;;15.20;63.90;;;;;;9171222;19;20122;-66
2022/07/15 03:06:56;;;;;;;9.52;2.03;;;15.20;64.00;;;;;;9181806;19;20019;-67
2022/07/15 03:10:02;;;;;;;8.88;2.20;;;15.30;64.10;;;;;;9184016;19;20033;-67
2022/07/15 03:13:11;;;;;;;9.02;2.60;;;15.20;64.10;;;;;;9183679;19;20106;-69
2022/07/15 03:16:16;;;;;;;9.15;2.50;;;15.20;64.20;;;;;;9185808;19;20038;-67
2022/07/15 03:19:24;;;;;;;12.38;2.30;;;15.30;64.30;;;;;;9183682;19;20052;-67
2022/07/15 03:22:30;;;;;;;12.32;2.30;;;15.30;64.40;;;;;;9185521;19;20369;-67
2022/07/15 03:25:36;;;;;;;9.98;2.92;;;15.30;64.40;;;;;;9182533;19;20107;-65
2022/07/15 03:28:48;;;;;;;7.50;2.10;;;15.30;64.40;;;;;;9183318;19;20010;-67
2022/07/15 03:31:54;;;;;;;13.48;2.30;;;15.30;64.50;;;;;;9183021;19;20912;-66
2022/07/15 03:35:02;;;;;;;9.13;2.75;;;15.40;64.50;;;;;;9183285;19;20018;-65
2022/07/15 03:38:11;;;;;;;12.38;2.60;;;15.40;64.60;;;;;;9182858;19;20022;-65
2022/07/15 03:41:16;;;;;;;12.07;2.60;;;15.40;64.60;;;;;;9183499;19;20369;-65
2022/07/15 03:44:24;;;;;;;7.78;2.88;;;15.40;64.60;;;;;;9182766;19;20030;-66
2022/07/15 03:47:30;;;;;;;19.95;3.80;;;15.40;64.80;;;;;;9179869;19;20018;-66
2022/07/15 03:50:35;;;;;;;13.52;4.28;;;15.40;64.70;;;;;;9182456;19;20050;-65
2022/07/15 03:53:40;;;;;;;11.52;3.40;;;15.40;64.70;;;;;;9182387;19;20022;-65
2022/07/15 03:56:49;;;;;;;11.25;3.67;;;15.50;64.80;;;;;;9181664;19;20464;-68
2022/07/15 03:59:59;;;;;;;14.73;5.20;;;15.50;64.80;;;;;;9182348;19;20022;-66
2022/07/15 04:03:04;;;;;;;15.90;3.45;;;15.50;65.00;;;;;;9185173;19;20388;-66
2022/07/15 04:06:10;;;;;;;19.17;3.45;;;15.50;64.90;;;;;;9177450;19;20014;-66
2022/07/15 04:09:15;;;;;;;12.18;3.00;;;15.50;65.00;;;;;;9183658;19;20108;-68
2022/07/15 04:12:22;;;;;;;8.23;2.60;;;15.50;65.10;;;;;;9181408;19;20082;-66
2022/07/15 04:15:30;;;;;;;11.32;2.60;;;15.50;65.10;;;;;;9180541;19;20010;-65
2022/07/15 04:18:36;;;;;;;7.28;2.45;;;15.50;65.20;;;;;;9180120;19;20476;-66
2022/07/15 04:21:42;;;;;;;4.65;2.22;;;15.60;65.20;;;;;;9181143;19;20029;-68
2022/07/15 04:24:47;;;;;;;8.32;2.60;;;15.50;65.20;;;;;;9181062;19;20021;-67
2022/07/15 04:27:54;;;;;;;8.52;2.30;;;15.50;65.20;;;;;;9181567;19;20459;-66
2022/07/15 04:31:06;;;;;;;9.10;2.60;;;15.60;65.30;;;;;;9181834;19;20014;-66
2022/07/15 04:34:28;;;;;;;7.25;2.40;;;15.50;65.30;;;;;;9181776;19;20014;-66
2022/07/15 04:37:33;;;;;;;6.05;1.90;;;15.60;65.30;;;;;;9181601;19;20026;-65
2022/07/15 04:40:39;;;;;;;9.93;2.10;;;15.50;65.30;;;;;;9180071;19;20011;-67
2022/07/15 04:43:49;;;;;;;8.32;2.38;;;15.60;65.40;;;;;;9181027;19;20018;-66
2022/07/15 04:46:57;;;;;;;6.63;2.00;;;15.50;65.40;;;;;;9179392;19;20026;-66
2022/07/15 04:53:28;;;;;;;9.60;2.50;;;15.50;65.60;;;;;;9179611;19;20017;-67
2022/07/15 04:56:33;;;;;;;6.30;2.45;;;15.50;65.60;;;;;;9180265;19;20829;-67
2022/07/15 04:59:42;;;;;;;7.60;2.58;;;15.40;65.60;;;;;;9180120;19;20069;-67
2022/07/15 05:02:54;;;;;;;12.02;2.03;;;15.50;65.70;;;;;;9179657;19;20029;-66
2022/07/15 05:05:59;;;;;;;14.45;3.05;;;15.50;65.90;;;;;;9172658;19;20018;-67
2022/07/15 05:09:13;;;;;;;12.23;2.30;;;15.50;65.90;;;;;;9181761;19;20112;-67
2022/07/15 05:12:18;;;;;;;11.02;2.13;;;15.50;66.00;;;;;;9180241;19;20014;-65
2022/07/15 05:15:29;;;;;;;7.88;2.42;;;15.40;66.00;;;;;;9179193;19;20029;-66
2022/07/15 05:18:44;;;;;;;12.85;2.55;;;15.40;66.00;;;;;;9178411;19;20014;-66
2022/07/15 05:21:54;;;;;;;5.95;1.83;;;15.40;66.10;;;;;;9178435;19;20018;-67
2022/07/15 05:24:59;;;;;;;14.73;2.75;;;15.50;66.20;;;;;;9178702;19;20503;-68
2022/07/15 05:28:05;;;;;;;13.18;2.20;;;15.50;66.30;;;;;;9175504;19;20011;-65
2022/07/15 05:31:10;;;;;;;11.32;2.35;;;15.50;66.40;;;;;;9177390;19;20022;-66
2022/07/15 05:34:18;;;;;;;12.20;2.47;;;15.60;66.50;;;;;;9179286;19;20109;-67
2022/07/15 05:37:24;;;;;;;9.82;2.22;;;15.60;66.60;;;;;;9179164;19;20015;-67
2022/07/15 05:40:29;;;;;;;13.10;2.53;;;15.60;66.60;;;;;;9177255;19;20014;-66
2022/07/15 05:43:34;;;;;;;11.90;2.80;;;15.60;66.80;;;;;;9178548;19;20420;-65
2022/07/15 05:46:40;;;;;;;13.23;2.03;;;15.70;66.90;;;;;;9176373;19;20037;-65
2022/07/15 05:49:48;;;;;;;11.73;2.15;;;15.80;67.00;;;;;;9177362;19;20049;-65
2022/07/15 05:52:53;;;;;;;8.05;2.88;;;15.90;67.20;;;;;;9177696;19;20026;-66
2022/07/15 05:55:58;;;;;;;8.85;2.30;;;16.00;67.20;;;;;;9177126;19;20019;-66
2022/07/15 05:59:05;;;;;;;15.60;3.00;;;16.10;67.10;;;;;;9177159;19;20018;-66
2022/07/15 06:02:13;;;;;;;11.10;1.77;;;16.20;67.10;;;;;;9176819;19;20099;-66
2022/07/15 06:05:22;;;;;;;15.95;2.15;;;16.30;67.20;;;;;;9170641;19;20011;-66
2022/07/15 06:08:32;;;;;;;10.55;2.78;;;16.50;67.30;;;;;;9174668;19;20029;-66
2022/07/15 06:11:38;;;;;;;10.82;2.53;;;16.70;67.20;;;;;;9176820;19;20010;-66
2022/07/15 06:14:44;;;;;;;13.25;1.83;;;16.80;67.10;;;;;;9173391;19;20029;-66
2022/07/15 06:17:53;;;;;;;5.70;1.15;;;17.00;67.10;;;;;;9172553;19;20010;-65
2022/07/15 06:21:04;;;;;;;7.50;1.17;;;17.20;67.00;;;;;;9171840;19;20759;-66
2022/07/15 06:24:10;;;;;;;3.80;0.98;;;17.40;66.80;;;;;;9171657;19;20026;-68
2022/07/15 06:27:18;;;;;;;5.68;1.40;;;17.60;66.60;;;;;;9170473;19;20487;-68
2022/07/15 06:30:23;;;;;;;6.88;1.30;;;17.80;66.30;;;;;;9172585;19;20056;-68
2022/07/15 06:33:28;;;;;;;6.15;0.85;;;18.00;66.10;;;;;;9170731;19;20029;-69
2022/07/15 06:36:36;;;;;;;9.38;2.03;;;18.20;66.40;;;;;;9174770;19;20029;-68
2022/07/15 06:39:41;;;;;;;4.20;1.30;;;18.50;65.60;;;;;;9174386;19;20377;-68
2022/07/15 06:42:46;;;;;;;6.40;1.45;;;18.70;65.40;;;;;;9183474;19;20453;-70
2022/07/15 06:45:57;;;;;;;5.35;1.27;;;18.90;65.10;;;;;;9182593;19;20011;-68
2022/07/15 06:49:02;;;;;;;6.65;2.00;;;19.10;64.70;;;;;;9179199;19;20033;-67
2022/07/15 06:52:11;;;;;;;5.70;1.15;;;19.30;64.50;;;;;;9176403;19;20023;-69
2022/07/15 06:55:17;;;;;;;4.95;1.27;;;19.50;64.10;;;;;;9183322;19;20021;-68
2022/07/15 06:58:22;;;;;;;2.22;0.80;;;19.70;64.00;;;;;;9183525;19;20021;-69
2022/07/15 07:01:28;;;;;;;5.85;1.35;;;19.90;63.60;;;;;;9184299;19;20021;-67
2022/07/15 07:04:34;;;;;;;4.28;0.98;;;20.10;63.30;;;;;;9180022;19;20014;-69
2022/07/15 07:07:42;;;;;;;5.13;0.88;;;20.30;63.00;;;;;;9184187;19;20011;-69
2022/07/15 07:10:47;;;;;;;7.38;0.90;;;20.50;62.70;;;;;;9181729;19;20022;-68
2022/07/15 07:13:52;;;;;;;3.20;0.77;;;20.70;62.50;;;;;;9181767;19;20126;-67
2022/07/15 07:16:57;;;;;;;3.40;0.68;;;20.90;62.20;;;;;;9175984;19;20391;-68
2022/07/15 07:20:02;;;;;;;1.92;0.52;;;21.00;61.80;;;;;;9172780;19;20022;-68
2022/07/15 07:23:10;;;;;;;3.35;0.73;;;21.20;61.50;;;;;;9174334;19;20090;-69
2022/07/15 07:26:16;;;;;;;1.38;0.50;;;21.30;61.10;;;;;;9178298;19;20037;-69
2022/07/15 07:29:22;;;;;;;9.98;0.88;;;21.50;60.90;;;;;;9178460;19;20481;-68
2022/07/15 07:32:27;;;;;;;6.10;0.90;;;21.60;60.60;;;;;;9178209;19;20017;-68
2022/07/15 07:35:32;;;;;;;6.80;1.02;;;21.80;60.40;;;;;;9176021;19;20014;-68
2022/07/15 07:38:41;;;;;;;5.03;0.77;;;21.90;60.10;;;;;;9177581;19;20462;-68
2022/07/15 07:41:53;;;;;;;9.60;1.30;;;22.10;59.80;;;;;;9178282;19;20029;-69
2022/07/15 07:44:59;;;;;;;2.05;0.55;;;22.20;59.60;;;;;;9174122;19;20014;-68
2022/07/15 07:48:04;;;;;;;2.67;0.80;;;22.30;59.40;;;;;;9175430;19;20443;-66
2022/07/15 07:51:09;;;;;;;5.40;0.88;;;22.50;59.20;;;;;;9174832;19;20037;-71
2022/07/15 07:54:17;;;;;;;2.22;1.13;;;22.60;58.90;;;;;;9175738;19;20097;-69
2022/07/15 07:57:22;;;;;;;7.10;0.90;;;22.70;58.50;;;;;;9176753;19;20480;-71
2022/07/15 08:00:33;;;;;;;3.25;0.70;;;22.80;58.30;;;;;;9175454;19;20488;-69
2022/07/15 08:03:38;;;;;;;4.18;0.60;;;23.00;58.10;;;;;;9179132;19;20019;-70
2022/07/15 08:06:43;;;;;;;3.03;0.68;;;23.10;57.80;;;;;;9179016;19;20026;-69
2022/07/15 08:09:52;;;;;;;6.32;0.75;;;23.30;57.50;;;;;;9183013;19;20010;-69
2022/07/15 08:12:57;;;;;;;3.65;0.52;;;23.40;57.10;;;;;;9178598;19;20018;-69
2022/07/15 08:16:02;;;;;;;9.65;0.65;;;23.50;56.90;;;;;;9178421;19;20018;-68
2022/07/15 08:19:19;;;;;;;5.43;0.47;;;23.70;56.70;;;;;;9177538;19;20038;-68
2022/07/15 08:22:25;;;;;;;1.45;0.50;;;23.80;56.40;;;;;;9176075;19;20340;-67
2022/07/15 08:25:39;;;;;;;2.15;0.50;;;23.90;56.20;;;;;;9171520;19;20018;-69
2022/07/15 08:28:44;;;;;;;6.50;0.63;;;24.00;55.60;;;;;;9171861;19;20023;-68
2022/07/15 08:32:09;;;;;;;2.80;0.47;;;24.20;55.70;;;;;;9167399;19;21533;-70
2022/07/15 08:35:14;;;;;;;2.10;0.40;;;24.30;55.50;;;;;;9168789;19;20025;-70
2022/07/15 08:38:23;;;;;;;1.77;0.45;;;24.40;55.20;;;;;;9174609;19;20006;-68
2022/07/15 08:41:31;;;;;;;1.75;0.50;;;24.50;55.00;;;;;;9172616;19;20019;-67
2022/07/15 08:44:37;;;;;;;4.20;0.63;;;24.60;54.50;;;;;;9170246;19;20026;-68
2022/07/15 08:47:46;;;;;;;6.07;1.27;;;24.70;54.40;;;;;;9169346;19;20019;-69
2022/07/15 08:50:58;;;;;;;4.13;0.47;;;24.80;54.20;;;;;;9170612;19;20029;-68
2022/07/15 08:54:03;;;;;;;3.15;0.77;;;25.00;54.10;;;;;;9169979;19;20022;-70
2022/07/15 08:57:14;;;;;;;5.18;0.50;;;25.00;53.90;;;;;;9170382;19;20085;-69
2022/07/15 09:00:28;;;;;;;4.00;0.50;;;25.10;53.50;;;;;;9169150;19;20015;-71
2022/07/15 09:03:35;;;;;;;3.38;0.65;;;25.10;53.30;;;;;;9166047;19;20048;-71
2022/07/15 09:06:42;;;;;;;1.83;0.68;;;25.10;53.10;;;;;;9172278;19;20021;-69
2022/07/15 09:09:49;;;;;;;2.22;0.50;;;25.10;53.00;;;;;;9167333;19;20019;-71
2022/07/15 09:12:59;;;;;;;2.33;0.65;;;25.00;52.80;;;;;;9167107;19;20022;-69
2022/07/15 09:16:08;;;;;;;3.60;0.60;;;25.00;52.80;;;;;;9170724;19;20679;-68
2022/07/15 09:19:13;;;;;;;2.05;0.32;;;24.90;52.80;;;;;;9168847;19;20022;-71
2022/07/15 09:22:19;;;;;;;2.70;0.55;;;24.90;52.70;;;;;;9172902;19;20026;-69
2022/07/15 09:25:27;;;;;;;3.05;0.82;;;24.80;52.40;;;;;;9169374;19;20472;-70
2022/07/15 09:28:44;;;;;;;0.85;0.28;;;24.80;52.40;;;;;;9169411;19;20053;-74
2022/07/15 09:38:47;;;;;;;1.55;0.45;;;24.70;52.10;;;;;;9167272;19;20381;-69
2022/07/15 09:41:53;;;;;;;1.25;0.35;;;24.60;52.00;;;;;;9168415;19;20126;-68
2022/07/15 09:45:23;;;;;;;;;;;24.60;52.00;;;;;;9169850;19;20022;-68
2022/07/15 09:48:31;;;;;;;3.22;0.40;;;24.50;52.40;;;;;;9169076;19;20321;-69
2022/07/15 09:51:45;;;;;;;3.58;0.30;;;24.50;52.20;;;;;;9170741;19;20010;-69
2022/07/15 09:54:51;;;;;;;0.60;0.38;;;24.50;51.90;;;;;;9170361;19;20038;-69
2022/07/15 09:57:59;;;;;;;1.17;0.30;;;24.50;52.00;;;;;;9171223;19;20022;-71
2022/07/15 10:01:05;;;;;;;1.38;0.50;;;24.50;51.90;;;;;;9167013;19;20438;-69
2022/07/15 10:04:13;;;;;;;0.77;0.20;;;24.60;51.70;;;;;;9161642;19;20015;-71
2022/07/15 10:07:19;;;;;;;1.95;0.65;;;24.70;51.40;;;;;;9167256;19;20033;-70
2022/07/15 10:10:35;;;;;;;2.83;0.70;;;24.80;51.20;;;;;;9170728;19;20010;-70
2022/07/15 10:14:15;;;;;;;1.50;0.35;;;24.80;51.10;;;;;;9176414;19;20021;-69
2022/07/15 10:17:50;;;;;;;1.65;0.40;;;24.80;51.20;;;;;;9183211;19;20034;-69
2022/07/15 10:21:17;;;;;;;3.05;0.32;;;24.80;50.50;;;;;;9181738;19;20044;-70
2022/07/15 10:24:39;;;;;;;1.55;0.20;;;24.80;50.60;;;;;;9175106;19;20060;-69
2022/07/15 10:28:03;;;;;;;2.88;0.47;;;24.80;50.50;;;;;;9179340;19;20019;-68
2022/07/15 10:31:20;;;;;;;0.90;0.30;;;24.80;50.50;;;;;;9176318;19;20078;-68
2022/07/15 10:34:31;;;;;;;0.60;0.32;;;24.70;50.50;;;;;;9182647;19;20022;-70
2022/07/15 10:37:39;;;;;;;0.28;0.28;;;24.70;50.50;;;;;;9180789;19;20345;-70
2022/07/15 10:41:20;;;;;;;2.33;0.30;;;24.70;50.60;;;;;;9183920;19;20499;-70
2022/07/15 10:44:33;;;;;;;4.38;0.30;;;24.70;50.40;;;;;;9177776;19;20014;-69
2022/07/15 10:47:38;;;;;;;3.00;0.30;;;24.80;50.30;;;;;;9186025;19;20014;-71
2022/07/15 10:50:43;;;;;;;1.02;0.10;;;24.90;50.40;;;;;;9177660;19;20019;-71
2022/07/15 10:53:52;;;;;;;2.90;0.20;;;25.00;50.20;;;;;;9181465;19;20018;-69
2022/07/15 10:56:57;;;;;;;1.65;0.43;;;25.10;49.90;;;;;;9181308;19;20019;-67
2022/07/15 11:00:02;;;;;;;2.50;0.47;;;25.10;49.80;;;;;;9182577;19;20022;-68
2022/07/15 11:03:11;;;;;;;1.70;0.40;;;25.10;49.60;;;;;;9186349;19;20022;-69
2022/07/15 11:06:16;;;;;;;2.08;0.25;;;25.10;49.40;;;;;;9173325;19;20051;-69
2022/07/15 11:09:50;;;;;;;3.10;0.50;;;25.00;49.30;;;;;;9181533;19;20029;-70
2022/07/15 11:13:04;;;;;;;2.17;0.38;;;25.00;49.10;;;;;;9184368;19;20511;-68
2022/07/15 11:16:12;;;;;;;1.52;0.38;;;24.90;49.30;;;;;;9184732;19;20494;-72
2022/07/15 11:19:20;;;;;;;0.30;0.30;;;24.90;49.30;;;;;;9180074;19;20019;-70
2022/07/15 11:22:27;;;;;;;3.60;0.32;;;24.90;49.30;;;;;;9173688;19;20057;-71
2022/07/15 11:25:37;;;;;;;1.00;0.50;;;24.80;49.20;;;;;;9174263;19;20236;-70
2022/07/15 11:28:51;;;;;;;0.90;0.30;;;24.80;49.00;;;;;;9173724;19;20022;-70
2022/07/15 11:31:58;;;;;;;1.33;0.40;;;24.90;48.90;;;;;;9175440;19;20013;-69
2022/07/15 11:35:05;;;;;;;0.63;0.43;;;24.80;49.10;;;;;;9174062;19;20018;-69
2022/07/15 11:38:10;;;;;;;1.27;0.20;;;24.80;49.00;;;;;;9177086;19;20018;-69
2022/07/15 11:44:46;;;;;;;1.45;0.20;;;24.70;48.80;;;;;;9174858;19;21526;-68
2022/07/15 11:47:56;;;;;;;0.57;0.30;;;24.70;49.00;;;;;;9179109;19;20025;-68
2022/07/15 11:51:01;;;;;;;1.00;0.35;;;24.60;48.80;;;;;;9174788;19;20049;-68
2022/07/15 11:54:06;;;;;;;4.13;0.70;;;24.60;48.90;;;;;;9174996;19;20015;-68
2022/07/15 11:57:14;;;;;;;1.48;0.50;;;24.60;48.90;;;;;;9175550;19;20018;-69
2022/07/15 12:00:29;;;;;;;1.33;0.40;;;24.50;48.90;;;;;;9175333;19;20019;-68
2022/07/15 12:03:36;;;;;;;3.20;0.70;;;24.40;49.00;;;;;;9168770;19;20023;-68
2022/07/15 12:06:41;;;;;;;1.75;0.30;;;24.40;49.00;;;;;;9179616;19;20044;-68
2022/07/15 12:09:48;;;;;;;1.85;0.50;;;24.50;49.10;;;;;;9176409;19;20113;-69
2022/07/15 12:13:01;;;;;;;0.73;0.30;;;24.50;48.90;;;;;;9172041;19;20018;-70
2022/07/15 12:16:07;;;;;;;5.13;0.50;;;24.50;48.70;;;;;;9171472;19;20064;-70
2022/07/15 12:19:19;;;;;;;1.80;0.30;;;24.60;48.80;;;;;;9173444;19;20018;-68
2022/07/15 12:22:25;;;;;;;1.38;0.20;;;24.60;48.70;;;;;;9173716;19;20545;-68
2022/07/15 12:25:30;;;;;;;1.15;0.40;;;24.60;48.70;;;;;;9174698;19;20014;-70
2022/07/15 12:28:39;;;;;;;1.83;0.32;;;24.70;48.60;;;;;;9173544;19;20068;-70
2022/07/15 12:31:45;;;;;;;1.80;0.55;;;24.70;48.60;;;;;;9172443;19;20018;-69
2022/07/15 12:34:53;;;;;;;4.82;0.50;;;24.80;48.60;;;;;;9173107;19;20407;-69
2022/07/15 12:37:58;;;;;;;2.53;0.50;;;24.80;48.60;;;;;;9169622;19;20034;-71
2022/07/15 12:41:11;;;;;;;2.13;0.73;;;24.80;48.50;;;;;;9174401;19;20372;-69
2022/07/15 12:44:24;;;;;;;1.65;0.40;;;24.90;48.40;;;;;;9170124;19;20033;-69
2022/07/15 12:47:29;;;;;;;4.03;1.13;;;24.90;48.30;;;;;;9172678;19;20041;-69
2022/07/15 12:50:36;;;;;;;1.63;0.45;;;24.90;48.40;;;;;;9170971;19;20033;-69
2022/07/15 12:53:41;;;;;;;3.03;0.80;;;25.00;48.40;;;;;;9172977;19;20046;-70
2022/07/15 12:56:53;;;;;;;2.83;0.80;;;25.00;48.40;;;;;;9172280;19;20839;-69
2022/07/15 13:00:15;;;;;;;1.75;0.38;;;25.00;48.30;;;;;;9210998;19;20666;-69
2022/07/15 13:03:22;;;;;;;1.85;0.65;;;24.90;48.20;;;;;;9211369;19;20029;-71
2022/07/15 13:06:29;;;;;;;1.42;0.50;;;25.00;48.40;;;;;;9212413;19;20029;-70
2022/07/15 13:09:34;;;;;;;1.83;0.55;;;24.90;48.40;;;;;;9217904;19;20013;-69
2022/07/15 13:12:41;;;;;;;1.52;0.40;;;24.90;48.40;;;;;;9212361;19;20029;-69
2022/07/15 13:15:50;;;;;;;1.20;0.20;;;24.90;48.20;;;;;;9210703;19;20026;-68
2022/07/15 13:18:58;;;;;;;1.58;0.40;;;24.90;48.10;;;;;;9208841;19;20030;-70
2022/07/15 13:22:04;;;;;;;0.93;0.45;;;25.00;48.20;;;;;;9216117;19;20029;-68
2022/07/15 13:25:11;;;;;;;0.95;0.50;;;25.00;48.10;;;;;;9218073;19;20027;-69
2022/07/15 13:28:16;;;;;;;2.05;0.40;;;25.00;48.00;;;;;;9218450;19;20026;-68
2022/07/15 13:31:24;;;;;;;2.83;0.35;;;25.10;47.90;;;;;;9215514;19;20022;-68
2022/07/15 13:34:29;;;;;;;1.38;0.50;;;25.10;47.80;;;;;;9216207;19;20014;-69
2022/07/15 13:37:34;;;;;;;3.28;0.40;;;25.20;47.90;;;;;;9214333;19;20018;-70
2022/07/15 13:40:40;;;;;;;2.63;0.30;;;25.20;47.90;;;;;;9217000;19;20098;-68
2022/07/15 13:43:45;;;;;;;2.05;0.40;;;25.30;47.80;;;;;;9211881;19;20017;-68
2022/07/15 13:46:53;;;;;;;3.50;0.30;;;25.30;47.60;;;;;;9211775;19;20082;-67
2022/07/15 13:53:16;;;;;;;1.30;0.30;;;25.40;47.40;;;;;;9214853;19;20372;-69
2022/07/15 13:56:21;;;;;;;2.60;0.40;;;25.40;47.50;;;;;;9215094;19;20018;-68
2022/07/15 13:59:27;;;;;;;3.30;0.40;;;25.40;47.40;;;;;;9209243;19;20018;-66
2022/07/15 14:02:34;;;;;;;0.93;0.38;;;25.40;47.30;;;;;;9212315;19;20022;-68
2022/07/15 14:05:40;;;;;;;2.00;0.68;;;25.40;47.20;;;;;;9205837;19;20014;-68
2022/07/15 14:08:45;;;;;;;2.00;0.50;;;25.40;47.30;;;;;;9207539;19;20018;-68
2022/07/15 14:11:50;;;;;;;1.48;0.40;;;25.40;47.30;;;;;;9175484;19;20340;-68
2022/07/15 14:14:56;;;;;;;5.72;0.90;;;25.40;47.20;;;;;;9178870;19;20151;-67
2022/07/15 14:18:05;;;;;;;2.47;0.50;;;25.40;47.30;;;;;;9177973;19;20018;-67
2022/07/15 14:21:11;;;;;;;2.85;0.47;;;25.40;47.20;;;;;;9176502;19;20022;-67
2022/07/15 14:24:20;;;;;;;1.63;0.68;;;25.40;47.20;;;;;;9176337;19;20410;-67
2022/07/15 14:27:25;;;;;;;1.23;0.52;;;25.40;47.20;;;;;;9178489;19;20042;-66
2022/07/15 14:30:30;;;;;;;1.92;0.50;;;25.40;47.30;;;;;;9177816;19;20018;-68
2022/07/15 14:33:39;;;;;;;1.85;0.45;;;25.40;47.40;;;;;;9175472;19;20490;-69
2022/07/15 14:36:44;;;;;;;2.58;0.47;;;25.40;47.20;;;;;;9176826;19;20055;-68
2022/07/15 14:40:10;;;;;;;2.90;0.43;;;25.40;47.30;;;;;;9177079;19;20014;-66
2022/07/15 14:43:15;;;;;;;2.05;0.60;;;25.40;47.20;;;;;;9176442;19;20025;-68
2022/07/15 14:46:20;;;;;;;0.90;0.30;;;25.50;47.20;;;;;;9176686;19;20445;-70
2022/07/15 14:49:29;;;;;;;1.33;0.20;;;25.40;47.10;;;;;;9176016;19;20377;-68
2022/07/15 14:52:34;;;;;;;8.02;0.70;;;25.40;47.10;;;;;;9178216;19;20015;-68
2022/07/15 14:55:39;;;;;;;2.28;0.88;;;25.40;47.10;;;;;;9176825;19;20768;-68
2022/07/15 14:58:44;;;;;;;1.88;0.50;;;25.50;47.20;;;;;;9176787;19;20400;-68
2022/07/15 15:01:49;;;;;;;2.60;0.50;;;25.50;47.10;;;;;;9176076;19;20018;-69
2022/07/15 15:04:58;;;;;;;4.07;0.43;;;25.40;47.10;;;;;;9171534;19;20026;-68
2022/07/15 15:08:05;;;;;;;1.92;0.70;;;25.40;47.00;;;;;;9177004;19;20368;-69
2022/07/15 15:11:11;;;;;;;0.63;0.30;;;25.40;47.10;;;;;;9175624;19;20021;-68
2022/07/15 15:14:16;;;;;;;3.83;0.45;;;25.40;47.10;;;;;;9173454;19;20026;-67
2022/07/15 15:17:21;;;;;;;0.93;0.43;;;25.40;47.10;;;;;;9176606;19;20014;-68
2022/07/15 15:20:29;;;;;;;1.90;0.50;;;25.40;47.20;;;;;;9170399;19;20021;-67
2022/07/15 15:23:34;;;;;;;1.92;0.40;;;25.30;47.10;;;;;;9169293;19;20022;-68
2022/07/15 15:26:42;;;;;;;5.50;0.80;;;25.30;47.30;;;;;;9172334;19;20018;-68
2022/07/15 15:29:46;;;;;;;3.42;0.60;;;25.40;47.30;;;;;;9172307;19;20019;-68
2022/07/15 15:32:53;;;;;;;4.55;0.60;;;25.30;47.10;;;;;;9173484;19;20649;-67
2022/07/15 15:36:00;;;;;;;3.85;0.52;;;25.30;47.10;;;;;;9170653;19;20015;-68
2022/07/15 15:39:06;;;;;;;1.33;0.38;;;25.30;47.00;;;;;;9176473;19;20023;-69
2022/07/15 15:42:12;;;;;;;1.10;0.40;;;25.30;47.10;;;;;;9171210;19;20018;-69
2022/07/15 15:45:25;;;;;;;1.92;0.50;;;25.30;47.10;;;;;;9171138;19;20018;-68
2022/07/15 15:48:31;;;;;;;3.85;0.50;;;25.20;47.00;;;;;;9168193;19;20367;-69
2022/07/15 15:51:39;;;;;;;0.52;0.30;;;25.20;47.00;;;;;;9168688;19;20645;-68
2022/07/15 15:54:44;;;;;;;2.42;0.88;;;25.20;47.00;;;;;;9167710;19;20755;-67
2022/07/15 15:57:49;;;;;;;7.65;0.80;;;25.20;47.10;;;;;;9169597;19;20014;-67
2022/07/15 16:01:15;;;;;;;1.50;0.70;;;25.20;47.10;;;;;;9167174;19;20045;-66
2022/07/15 16:04:20;;;;;;;2.83;0.93;;;25.20;47.10;;;;;;9162813;19;20025;-68
2022/07/15 16:07:28;;;;;;;2.13;0.52;;;25.10;47.10;;;;;;9168297;19;20017;-67
2022/07/15 16:10:33;;;;;;;2.88;0.75;;;25.10;47.10;;;;;;9169198;19;20796;-68
2022/07/15 16:13:40;;;;;;;3.75;0.50;;;25.00;47.20;;;;;;9168331;19;20015;-67
2022/07/15 16:16:46;;;;;;;1.23;0.57;;;25.00;47.30;;;;;;9171620;19;20054;-66
2022/07/15 16:19:51;;;;;;;3.15;1.10;;;25.00;47.40;;;;;;9173883;19;20674;-68
2022/07/15 16:23:03;;;;;;;4.93;0.52;;;24.90;47.40;;;;;;9175425;19;20476;-68
2022/07/15 16:26:08;;;;;;;1.30;0.60;;;24.80;47.30;;;;;;9175963;19;20391;-67
2022/07/15 16:29:13;;;;;;;5.97;0.80;;;24.80;47.50;;;;;;9174974;19;20015;-68
2022/07/15 16:32:19;;;;;;;4.43;1.20;;;24.70;47.60;;;;;;9172126;19;20015;-68
2022/07/15 16:35:25;;;;;;;2.35;0.60;;;24.60;47.50;;;;;;9173306;19;20026;-69
2022/07/15 16:38:32;;;;;;;7.47;0.77;;;24.60;47.60;;;;;;9171986;19;20026;-69
2022/07/15 16:41:37;;;;;;;1.60;0.80;;;24.50;47.70;;;;;;9171223;19;20010;-68